Time;durP1;ratioP1;P1;durP2;ratioP2;P2;SDS_P1;SDS_P2;PMS_P1;PMS_P2;Temp;Humidity;BMP_temperature;BMP_pressure;BME280_temperature;BME280_humidity;BME280_pressure;Samples;Min_cycle;Max_cycle;Signal;HPM_P1;HPM_P2
2023/10/16 00:07:11;;;;;;;;;;;23.40;61.60;;;;;;5064706;28;42796;-79
2023/10/16 00:09:40;;;;;;;;;;;23.20;63.70;;;;;;5064300;28;42989;-77
2023/10/16 00:21:15;;;;;;;;;;;23.30;61.40;;;;;;5064085;28;42868;-78
2023/10/16 00:24:08;;;;;;;;;;;23.30;63.70;;;;;;5066471;28;42910;-78
2023/10/16 00:26:42;;;;;;;;;;;23.30;63.80;;;;;;5065818;28;42789;-78
2023/10/16 00:32:07;;;;;;;;;;;23.30;61.50;;;;;;5067232;28;42939;-78
2023/10/16 00:43:28;;;;;;;;;;;23.20;63.60;;;;;;5062756;28;43060;-78
2023/10/16 00:52:15;;;;;;;;;;;23.40;61.50;;;;;;5063532;28;42909;-77
2023/10/16 00:54:41;;;;;;;;;;;23.30;63.50;;;;;;5046528;28;43938;-78
2023/10/16 00:57:08;;;;;;;;;;;23.10;63.50;;;;;;5045961;28;42798;-77
2023/10/16 00:59:35;;;;;;;;;;;23.20;63.40;;;;;;5045242;28;42998;-78
2023/10/16 01:02:26;;;;;;;;;;;23.00;63.90;;;;;;5045301;28;43545;-77
2023/10/16 01:04:51;;;;;;;;;;;23.30;63.40;;;;;;5039707;28;43422;-77
2023/10/16 01:07:19;;;;;;;;;;;23.10;63.40;;;;;;5035164;28;43015;-79
2023/10/16 01:09:46;;;;;;;;;;;23.30;64.30;;;;;;5028105;28;43383;-79
2023/10/16 01:12:12;;;;;;;;;;;23.10;63.50;;;;;;5007695;28;43102;-78
2023/10/16 01:14:37;;;;;;;;;;;23.20;64.20;;;;;;5025553;28;43820;-76
2023/10/16 01:17:04;;;;;;;;;;;23.30;64.20;;;;;;5006149;28;42983;-78
2023/10/16 01:19:31;;;;;;;;;;;23.00;64.00;;;;;;5024645;28;42903;-78
2023/10/16 01:21:58;;;;;;;;;;;23.40;61.80;;;;;;5025236;28;42981;-77
2023/10/16 01:24:24;;;;;;;;;;;23.20;64.00;;;;;;5026180;28;42952;-76
2023/10/16 01:26:50;;;;;;;;;;;23.30;64.00;;;;;;5032777;28;43011;-76
2023/10/16 01:29:15;;;;;;;;;;;23.30;63.30;;;;;;5031553;28;43620;-77
2023/10/16 01:31:44;;;;;;;;;;;23.20;63.90;;;;;;5032008;28;43037;-78
2023/10/16 01:34:12;;;;;;;;;;;23.00;63.20;;;;;;5026179;28;43183;-77
2023/10/16 01:36:51;;;;;;;;;;;23.20;64.00;;;;;;5025849;28;42897;-76
2023/10/16 01:42:02;;;;;;;;;;;23.10;63.60;;;;;;5025539;28;43008;-77
2023/10/16 01:44:28;;;;;;;;;;;22.90;63.70;;;;;;5009800;28;42947;-77
2023/10/16 01:46:54;;;;;;;;;;;23.10;63.20;;;;;;5026467;28;42841;-77
2023/10/16 01:49:24;;;;;;;;;;;23.30;63.40;;;;;;5068529;22;43642;-77
2023/10/16 01:51:50;;;;;;;;;;;23.00;63.50;;;;;;5044544;28;43070;-77
2023/10/16 01:54:17;;;;;;;;;;;23.20;63.80;;;;;;5045616;28;42932;-77
2023/10/16 01:56:43;;;;;;;;;;;23.30;64.00;;;;;;5045092;28;43062;-78
2023/10/16 01:59:08;;;;;;;;;;;23.10;63.70;;;;;;5044758;28;43411;-76
2023/10/16 02:01:34;;;;;;;;;;;23.10;63.60;;;;;;5045079;28;42894;-78
2023/10/16 02:04:03;;;;;;;;;;;23.00;63.60;;;;;;5044989;28;42950;-78
2023/10/16 02:06:28;;;;;;;;;;;24.40;63.70;;;;;;5231378;22;43589;-78
2023/10/16 02:08:54;;;;;;;;;;;23.20;63.20;;;;;;5144951;22;43174;-77
2023/10/16 02:11:21;;;;;;;;;;;23.10;63.50;;;;;;5043634;28;42971;-78
2023/10/16 02:13:47;;;;;;;;;;;23.20;63.10;;;;;;5043352;28;43007;-78
2023/10/16 02:16:17;;;;;;;;;;;23.10;63.60;;;;;;5043134;28;43148;-79
2023/10/16 02:21:18;;;;;;;;;;;23.30;62.80;;;;;;5201042;22;43079;-77
2023/10/16 02:23:46;;;;;;;;;;;23.10;62.90;;;;;;5036071;28;43853;-76
2023/10/16 02:26:11;;;;;;;;;;;23.30;63.70;;;;;;5024374;28;42989;-77
2023/10/16 02:31:18;;;;;;;;;;;23.10;60.80;;;;;;5042470;28;43466;-78
2023/10/16 02:33:45;;;;;;;;;;;23.20;62.80;;;;;;5198529;22;43779;-78
2023/10/16 02:36:14;;;;;;;;;;;23.20;63.40;;;;;;5044376;28;42973;-77
2023/10/16 02:38:41;;;;;;;;;;;22.90;61.00;;;;;;5046916;28;42888;-76
2023/10/16 02:41:08;;;;;;;;;;;23.00;62.70;;;;;;5047359;28;42912;-77
2023/10/16 02:43:37;;;;;;;;;;;23.00;63.50;;;;;;5027885;28;42980;-77
2023/10/16 02:46:03;;;;;;;;;;;23.10;62.80;;;;;;5158542;22;43140;-77
2023/10/16 02:48:29;;;;;;;;;;;22.90;63.50;;;;;;5047659;28;43656;-76
2023/10/16 02:50:56;;;;;;;;;;;23.10;63.00;;;;;;5047448;28;42991;-77
2023/10/16 02:53:23;;;;;;;;;;;23.00;62.80;;;;;;5046664;28;43485;-78
2023/10/16 02:55:52;;;;;;;;;;;23.10;63.50;;;;;;5047250;28;43041;-77
2023/10/16 02:58:22;;;;;;;;;;;22.50;63.20;;;;;;5046920;28;43433;-77
2023/10/16 03:00:49;;;;;;;;;;;23.20;62.80;;;;;;5046268;28;42991;-77
2023/10/16 03:03:18;;;;;;;;;;;23.10;63.30;;;;;;5045547;28;43718;-78
2023/10/16 03:05:44;;;;;;;;;;;23.10;63.30;;;;;;5046214;28;42980;-77
2023/10/16 03:08:10;;;;;;;;;;;22.90;63.20;;;;;;5046330;28;43015;-78
2023/10/16 03:10:36;;;;;;;;;;;23.00;63.30;;;;;;5044619;28;43042;-78
2023/10/16 03:13:05;;;;;;;;;;;23.10;62.70;;;;;;5045596;28;42967;-79
2023/10/16 03:15:38;;;;;;;;;;;23.00;62.70;;;;;;5046570;28;43094;-78
2023/10/16 03:18:04;;;;;;;;;;;23.10;63.50;;;;;;5044759;28;43397;-78
2023/10/16 03:20:35;;;;;;;;;;;23.00;62.70;;;;;;5047016;28;42975;-78
2023/10/16 03:23:06;;;;;;;;;;;23.10;61.50;;;;;;5046404;28;43790;-78
2023/10/16 03:28:11;;;;;;;;;;;23.10;63.20;;;;;;5046359;28;43758;-77
2023/10/16 03:30:37;;;;;;;;;;;22.90;63.10;;;;;;5022576;28;43112;-80
2023/10/16 03:33:03;;;;;;;;;;;23.10;63.00;;;;;;5037595;28;43027;-76
2023/10/16 03:35:32;;;;;;;;;;;22.90;62.70;;;;;;5038041;28;42996;-86
2023/10/16 03:37:58;;;;;;;;;;;23.10;62.30;;;;;;5043347;28;43579;-79
2023/10/16 03:40:27;;;;;;;;;;;23.00;62.10;;;;;;5027218;28;43165;-81
2023/10/16 03:42:53;;;;;;;;;;;23.00;61.40;;;;;;5045894;28;43698;-81
2023/10/16 03:45:21;;;;;;;;;;;23.10;62.20;;;;;;5043092;28;43931;-80
2023/10/16 03:47:52;;;;;;;;;;;23.00;60.90;;;;;;5042589;28;43925;-79
2023/10/16 03:50:24;;;;;;;;;;;23.00;58.80;;;;;;5043035;28;43224;-82
2023/10/16 03:52:50;;;;;;;;;;;22.80;60.80;;;;;;5033470;28;42936;-82
2023/10/16 03:55:28;;;;;;;;;;;22.90;60.50;;;;;;5026328;28;42862;-78
2023/10/16 03:57:55;;;;;;;;;;;23.00;59.10;;;;;;5025628;28;43020;-81
2023/10/16 04:00:46;;;;;;;;;;;22.90;60.60;;;;;;5026584;28;43004;-82
2023/10/16 04:03:19;;;;;;;;;;;22.90;60.50;;;;;;5035642;28;43090;-82
2023/10/16 04:05:45;;;;;;;;;;;22.90;58.20;;;;;;5026867;28;43162;-82
2023/10/16 04:08:13;;;;;;;;;;;23.00;60.30;;;;;;5052777;28;43095;-81
2023/10/16 04:10:43;;;;;;;;;;;22.80;60.20;;;;;;5056075;28;42805;-81
2023/10/16 04:13:09;;;;;;;;;;;22.90;59.70;;;;;;5036193;28;43050;-82
2023/10/16 04:15:54;;;;;;;;;;;22.90;60.30;;;;;;5047136;28;42967;-79
2023/10/16 04:23:52;;;;;;;;;;;22.80;58.40;;;;;;4998857;28;43028;-80
2023/10/16 04:34:24;;;;;;;;;;;22.60;60.20;;;;;;5045653;28;42773;-80
2023/10/16 04:50:29;;;;;;;;;;;22.80;58.10;;;;;;5031880;28;42832;-79
2023/10/16 05:03:23;;;;;;;;;;;22.20;55.00;;;;;;5032941;28;43040;-84
2023/10/16 05:08:49;;;;;;;;;;;21.30;54.50;;;;;;5034605;28;43042;-84
2023/10/16 05:11:24;;;;;;;;;;;21.10;56.60;;;;;;5019751;28;43623;-81
2023/10/16 05:14:04;;;;;;;;;;;21.10;55.10;;;;;;5034779;28;42986;-81
2023/10/16 05:16:36;;;;;;;;;;;21.10;56.30;;;;;;5025703;28;42817;-82
2023/10/16 06:18:00;;;;;;;;;;;20.70;55.00;;;;;;5250274;22;43042;-81
2023/10/16 06:20:25;;;;;;;;;;;20.70;55.40;;;;;;5038401;28;42923;-81
2023/10/16 06:22:51;;;;;;;;;;;20.60;55.20;;;;;;5037363;28;43192;-80
2023/10/16 06:25:19;;;;;;;;;;;20.80;56.10;;;;;;5046442;28;44455;-80
2023/10/16 06:27:46;;;;;;;;;;;20.60;56.00;;;;;;5047900;28;42967;-80
2023/10/16 06:30:18;;;;;;;;;;;20.60;56.50;;;;;;5047280;28;43451;-79
2023/10/16 06:32:44;;;;;;;;;;;20.50;55.90;;;;;;5039085;28;42874;-81
2023/10/16 06:35:16;;;;;;;;;;;22.70;57.40;;;;;;5048388;28;42885;-80
2023/10/16 06:37:51;;;;;;;;;;;20.50;56.00;;;;;;5043228;28;43479;-80
2023/10/16 06:40:17;;;;;;;;;;;20.50;56.90;;;;;;5029774;28;43611;-80
2023/10/16 06:42:46;;;;;;;;;;;20.50;56.70;;;;;;5045829;28;42943;-80
2023/10/16 06:45:40;;;;;;;;;;;20.50;56.50;;;;;;5038273;28;42825;-80
2023/10/16 06:48:08;;;;;;;;;;;20.50;56.40;;;;;;5037217;28;42996;-80
2023/10/16 06:50:40;;;;;;;;;;;20.50;56.10;;;;;;5046569;28;44943;-81
2023/10/16 06:53:05;;;;;;;;;;;20.40;56.60;;;;;;5037093;28;42983;-79
2023/10/16 06:55:31;;;;;;;;;;;20.50;56.40;;;;;;5041635;28;43391;-79
2023/10/16 06:57:56;;;;;;;;;;;20.50;56.60;;;;;;5045502;28;43021;-80
2023/10/16 07:00:47;;;;;;;;;;;20.50;56.50;;;;;;5031928;28;42974;-80
2023/10/16 07:03:12;;;;;;;;;;;20.60;56.50;;;;;;5038085;28;43084;-80
2023/10/16 07:05:44;;;;;;;;;;;21.30;55.20;;;;;;5009984;28;42873;-79
2023/10/16 07:08:09;;;;;;;;;;;20.60;55.30;;;;;;5008500;28;43023;-80
2023/10/16 07:10:41;;;;;;;;;;;20.60;56.40;;;;;;5030367;28;43951;-80
2023/10/16 07:13:07;;;;;;;;;;;20.50;56.90;;;;;;5035649;28;43065;-81
2023/10/16 07:15:33;;;;;;;;;;;20.30;56.60;;;;;;5046824;28;43303;-81
2023/10/16 07:18:04;;;;;;;;;;;20.50;56.80;;;;;;5047483;28;43020;-80
2023/10/16 07:20:30;;;;;;;;;;;20.40;56.60;;;;;;5038988;28;42916;-80
2023/10/16 07:22:59;;;;;;;;;;;20.50;57.10;;;;;;5037757;28;43026;-80
2023/10/16 07:28:12;;;;;;;;;;;20.60;54.70;;;;;;5027601;28;42825;-82
2023/10/16 09:05:55;;;;;;;;;;;21.00;47.50;;;;;;5211999;22;43154;-82
2023/10/16 09:08:20;;;;;;;;;;;21.00;46.60;;;;;;5024915;28;42948;-80
2023/10/16 09:10:48;;;;;;;;;;;21.00;47.30;;;;;;5025943;28;43626;-81
2023/10/16 09:13:15;;;;;;;;;;;20.90;47.80;;;;;;5030961;28;43024;-81
2023/10/16 09:15:47;;;;;;;;;;;20.80;47.10;;;;;;5036059;28;44385;-81
2023/10/16 09:18:14;;;;;;;;;;;20.80;45.70;;;;;;5020829;28;42992;-81
2023/10/16 09:20:42;;;;;;;;;;;20.80;46.10;;;;;;4992705;28;43212;-81
2023/10/16 09:23:13;;;;;;;;;;;20.60;46.40;;;;;;5013622;28;43036;-80
2023/10/16 09:25:46;;;;;;;;;;;20.70;44.40;;;;;;5005864;28;43483;-80
2023/10/16 09:28:18;;;;;;;;;;;20.60;44.40;;;;;;4989963;28;43235;-80
2023/10/16 09:30:44;;;;;;;;;;;20.40;45.80;;;;;;5005912;28;43893;-81
2023/10/16 09:33:10;;;;;;;;;;;20.50;45.70;;;;;;5011263;28;43149;-80
2023/10/16 09:35:43;;;;;;;;;;;20.20;46.10;;;;;;5025183;28;43440;-81
2023/10/16 09:38:17;;;;;;;;;;;20.30;46.10;;;;;;5025061;28;42841;-80
2023/10/16 09:43:56;;;;;;;;;;;20.40;44.60;;;;;;5022866;28;43158;-80
2023/10/16 09:49:08;;;;;;;;;;;20.50;46.50;;;;;;5028429;28;43039;-80
2023/10/16 09:51:35;;;;;;;;;;;20.60;47.00;;;;;;5029683;28;43766;-81
2023/10/16 09:56:38;;;;;;;;;;;20.80;45.90;;;;;;5027055;28;43300;-81
2023/10/16 09:59:22;;;;;;;;;;;20.90;46.40;;;;;;5028869;28;42964;-82
2023/10/16 10:01:51;;;;;;;;;;;20.70;44.60;;;;;;5010067;28;43584;-81
2023/10/16 10:04:19;;;;;;;;;;;20.70;45.60;;;;;;5016004;28;42947;-81
2023/10/16 10:06:46;;;;;;;;;;;20.40;46.00;;;;;;5028119;28;43414;-81
2023/10/16 10:12:13;;;;;;;;;;;20.30;46.30;;;;;;5027013;28;43504;-81
2023/10/16 10:14:48;;;;;;;;;;;20.40;45.00;;;;;;5027472;28;43096;-81
2023/10/16 10:17:19;;;;;;;;;;;20.40;46.20;;;;;;5009893;28;43793;-82
2023/10/16 10:19:46;;;;;;;;;;;20.40;46.30;;;;;;5026870;28;43667;-83
2023/10/16 10:22:22;;;;;;;;;;;20.40;46.40;;;;;;5026470;28;43570;-81
2023/10/16 10:24:51;;;;;;;;;;;21.10;46.80;;;;;;5012459;28;43192;-81
2023/10/16 10:27:17;;;;;;;;;;;20.60;46.00;;;;;;5027190;28;43078;-82
2023/10/16 10:29:48;;;;;;;;;;;20.50;46.30;;;;;;5028584;28;43027;-82
2023/10/16 10:32:14;;;;;;;;;;;20.60;44.30;;;;;;5023462;28;43637;-81
2023/10/16 10:34:40;;;;;;;;;;;20.60;46.00;;;;;;5027875;28;43111;-81
2023/10/16 10:37:24;;;;;;;;;;;20.50;46.40;;;;;;5008561;28;43067;-82
2023/10/16 10:39:50;;;;;;;;;;;20.50;45.00;;;;;;5027539;28;43554;-81
2023/10/16 10:42:24;;;;;;;;;;;20.40;46.70;;;;;;5009730;28;44646;-81
2023/10/16 10:44:53;;;;;;;;;;;20.50;45.20;;;;;;5026684;28;43019;-81
2023/10/16 10:47:20;;;;;;;;;;;20.20;44.70;;;;;;5027207;28;43388;-81
2023/10/16 10:49:46;;;;;;;;;;;20.30;47.30;;;;;;5026661;28;43117;-82
2023/10/16 10:52:14;;;;;;;;;;;20.20;47.10;;;;;;5026211;28;43039;-81
2023/10/16 10:54:49;;;;;;;;;;;20.40;47.20;;;;;;5027174;28;43104;-81
2023/10/16 10:57:18;;;;;;;;;;;20.50;46.00;;;;;;5026603;28;42972;-83
2023/10/16 10:59:47;;;;;;;;;;;20.50;45.50;;;;;;5026504;28;42909;-81
2023/10/16 11:04:46;;;;;;;;;;;20.50;47.00;;;;;;5007483;28;42941;-81
2023/10/16 11:07:11;;;;;;;;;;;20.40;44.50;;;;;;5015072;28;42876;-81
2023/10/16 11:09:38;;;;;;;;;;;20.40;46.60;;;;;;5027888;28;42758;-82
2023/10/16 11:21:13;;;;;;;;;;;20.60;45.50;;;;;;5018833;28;42953;-83
2023/10/16 11:23:40;;;;;;;;;;;20.60;46.00;;;;;;5022384;28;43229;-81
2023/10/16 11:26:06;;;;;;;;;;;20.30;46.40;;;;;;5018339;28;42996;-81
2023/10/16 11:28:32;;;;;;;;;;;20.60;47.30;;;;;;5021342;28;43680;-80
2023/10/16 11:31:00;;;;;;;;;;;20.50;46.70;;;;;;5022995;28;42916;-80
2023/10/16 11:33:26;;;;;;;;;;;20.70;47.00;;;;;;5036549;28;43055;-80
2023/10/16 11:35:54;;;;;;;;;;;20.90;47.00;;;;;;5035467;28;43325;-80
2023/10/16 11:38:28;;;;;;;;;;;21.20;47.10;;;;;;5034946;28;44380;-80
2023/10/16 11:40:57;;;;;;;;;;;21.10;47.10;;;;;;5035945;28;43024;-79
2023/10/16 11:43:23;;;;;;;;;;;21.20;45.40;;;;;;5040290;28;43628;-80
2023/10/16 11:45:56;;;;;;;;;;;21.10;47.50;;;;;;5038454;28;42968;-80
2023/10/16 11:50:51;;;;;;;;;;;21.20;47.30;;;;;;5035239;28;42939;-80
2023/10/16 11:58:31;;;;;;;;;;;21.30;47.30;;;;;;5481235;22;43208;-80
2023/10/16 12:01:08;;;;;;;;;;;21.50;47.60;;;;;;5038104;28;43016;-80
2023/10/16 12:03:33;;;;;;;;;;;21.30;48.20;;;;;;5033306;28;43003;-82
2023/10/16 12:05:59;;;;;;;;;;;21.20;48.70;;;;;;5024289;28;42968;-79
2023/10/16 12:08:25;;;;;;;;;;;21.20;48.90;;;;;;5025657;28;42987;-81
2023/10/16 12:10:50;;;;;;;;;;;21.30;48.10;;;;;;5040018;28;43069;-80
2023/10/16 12:13:16;;;;;;;;;;;21.20;48.10;;;;;;5037131;28;43855;-80
2023/10/16 12:15:43;;;;;;;;;;;21.10;47.10;;;;;;5040437;28;43136;-79
2023/10/16 12:18:12;;;;;;;;;;;21.00;47.50;;;;;;5041155;28;43738;-79
2023/10/16 12:20:41;;;;;;;;;;;21.00;45.10;;;;;;5009092;28;43950;-79
2023/10/16 12:23:07;;;;;;;;;;;20.90;45.10;;;;;;5029765;28;43745;-78
2023/10/16 12:25:34;;;;;;;;;;;20.70;47.00;;;;;;5043755;28;43634;-78
2023/10/16 12:28:07;;;;;;;;;;;20.70;47.50;;;;;;5043007;28;43043;-79
2023/10/16 12:30:33;;;;;;;;;;;20.70;47.50;;;;;;5045876;28;42975;-79
2023/10/16 12:32:59;;;;;;;;;;;20.60;47.50;;;;;;5031907;28;43821;-79
2023/10/16 12:35:26;;;;;;;;;;;20.80;47.00;;;;;;5621524;22;43420;-77
2023/10/16 12:43:57;;;;;;;;;;;20.70;44.70;;;;;;5057268;28;43011;-78
2023/10/16 12:49:26;;;;;;;;;;;20.60;45.10;;;;;;5053121;28;43004;-78
2023/10/16 12:51:53;;;;;;;;;;;21.00;47.00;;;;;;5057339;28;42978;-78
2023/10/16 12:54:24;;;;;;;;;;;20.80;46.60;;;;;;5055940;28;43554;-78
2023/10/16 12:56:52;;;;;;;;;;;20.70;46.80;;;;;;5035472;28;43209;-78
2023/10/16 12:59:19;;;;;;;;;;;20.60;46.50;;;;;;5055598;28;43059;-78
2023/10/16 13:01:49;;;;;;;;;;;20.70;47.00;;;;;;5056622;28;43019;-78
2023/10/16 13:04:18;;;;;;;;;;;20.80;46.50;;;;;;5054716;28;43052;-77
2023/10/16 13:06:43;;;;;;;;;;;20.70;44.80;;;;;;5057301;28;43032;-77
2023/10/16 13:09:16;;;;;;;;;;;20.80;46.60;;;;;;5056342;28;44533;-77
2023/10/16 13:11:46;;;;;;;;;;;20.90;47.60;;;;;;5056373;28;43130;-77
2023/10/16 13:14:12;;;;;;;;;;;20.80;45.30;;;;;;5057240;28;42950;-78
2023/10/16 13:16:41;;;;;;;;;;;20.90;46.90;;;;;;5040839;28;42873;-78
2023/10/16 13:19:10;;;;;;;;;;;20.80;45.10;;;;;;5046870;28;44247;-77
2023/10/16 13:21:38;;;;;;;;;;;20.80;46.50;;;;;;5056567;28;42933;-77
2023/10/16 13:24:42;;;;;;;;;;;21.10;47.10;;;;;;5043573;28;42952;-78
2023/10/16 13:27:20;;;;;;;;;;;20.80;44.40;;;;;;5028153;28;43088;-78
2023/10/16 13:29:46;;;;;;;;;;;21.00;44.60;;;;;;5045018;28;43634;-77
2023/10/16 13:32:12;;;;;;;;;;;20.90;46.30;;;;;;5044880;28;43023;-78
2023/10/16 13:34:38;;;;;;;;;;;20.70;46.60;;;;;;5046294;28;43517;-78
2023/10/16 13:37:13;;;;;;;;;;;20.70;46.40;;;;;;5045166;28;42900;-77
2023/10/16 13:39:38;;;;;;;;;;;21.10;46.30;;;;;;5058936;28;43351;-77
2023/10/16 13:42:08;;;;;;;;;;;21.00;46.90;;;;;;5061942;28;42958;-78
2023/10/16 13:44:35;;;;;;;;;;;20.80;46.30;;;;;;5057364;28;42883;-78
2023/10/16 13:47:04;;;;;;;;;;;21.00;46.90;;;;;;5049003;28;42840;-77
2023/10/16 13:49:31;;;;;;;;;;;21.10;46.50;;;;;;5055030;28;43990;-77
2023/10/16 13:51:57;;;;;;;;;;;21.20;47.20;;;;;;5056638;28;42982;-77
2023/10/16 13:54:24;;;;;;;;;;;21.10;46.90;;;;;;5045134;28;42884;-77
2023/10/16 13:56:50;;;;;;;;;;;21.20;46.90;;;;;;5054290;28;43041;-78
2023/10/16 13:59:18;;;;;;;;;;;20.90;46.70;;;;;;5046237;28;43950;-78
2023/10/16 14:01:44;;;;;;;;;;;21.00;46.60;;;;;;5057412;28;43378;-78
2023/10/16 14:04:21;;;;;;;;;;;21.00;46.50;;;;;;5028620;28;42997;-77
2023/10/16 14:06:53;;;;;;;;;;;21.00;46.00;;;;;;5060032;28;42914;-79
2023/10/16 14:09:20;;;;;;;;;;;21.10;47.30;;;;;;5055996;28;43652;-78
2023/10/16 14:11:49;;;;;;;;;;;20.90;47.40;;;;;;5052851;28;43075;-78
2023/10/16 14:14:18;;;;;;;;;;;21.40;47.60;;;;;;5055357;28;44456;-79
2023/10/16 14:16:53;;;;;;;;;;;21.30;47.20;;;;;;5057310;28;42965;-78
2023/10/16 14:19:22;;;;;;;;;;;21.10;46.80;;;;;;5071711;28;43120;-78
2023/10/16 14:22:09;;;;;;;;;;;21.20;46.80;;;;;;5059950;28;43310;-78
2023/10/16 14:24:35;;;;;;;;;;;21.10;45.00;;;;;;5057513;28;43026;-78
2023/10/16 14:27:00;;;;;;;;;;;21.10;46.80;;;;;;5053856;28;43009;-78
2023/10/16 14:29:26;;;;;;;;;;;21.00;46.90;;;;;;5054121;28;42970;-78
2023/10/16 14:31:55;;;;;;;;;;;21.00;46.60;;;;;;5135940;22;42939;-79
2023/10/16 14:34:24;;;;;;;;;;;20.90;46.80;;;;;;5015463;28;43040;-78
2023/10/16 14:36:51;;;;;;;;;;;21.10;47.00;;;;;;5035995;28;43016;-78
2023/10/16 14:39:17;;;;;;;;;;;21.10;47.20;;;;;;5028891;28;44213;-78
2023/10/16 14:41:43;;;;;;;;;;;21.10;47.30;;;;;;5041198;28;43037;-78
2023/10/16 14:44:09;;;;;;;;;;;21.10;47.20;;;;;;5034671;28;43911;-78
2023/10/16 14:46:36;;;;;;;;;;;20.90;46.80;;;;;;5046407;28;42905;-78
2023/10/16 14:49:03;;;;;;;;;;;21.00;47.00;;;;;;5043213;28;43582;-78
2023/10/16 14:51:30;;;;;;;;;;;21.00;46.60;;;;;;5022388;28;43178;-79
2023/10/16 14:53:56;;;;;;;;;;;20.90;46.80;;;;;;5036052;28;42989;-79
2023/10/16 14:56:22;;;;;;;;;;;20.90;46.60;;;;;;5020735;28;43272;-79
2023/10/16 14:58:49;;;;;;;;;;;20.90;46.70;;;;;;5017865;28;43006;-79
2023/10/16 15:01:15;;;;;;;;;;;20.90;46.50;;;;;;5024040;28;42762;-79
2023/10/16 15:03:46;;;;;;;;;;;20.90;46.70;;;;;;5038407;28;42954;-79
2023/10/16 15:06:13;;;;;;;;;;;21.00;46.70;;;;;;5019394;28;42989;-78
2023/10/16 15:08:43;;;;;;;;;;;20.90;46.80;;;;;;5011699;28;45293;-78
2023/10/16 15:11:10;;;;;;;;;;;20.80;45.40;;;;;;5029007;28;43019;-78
2023/10/16 15:13:37;;;;;;;;;;;20.90;47.00;;;;;;5027409;28;43053;-78
2023/10/16 15:16:15;;;;;;;;;;;21.00;47.20;;;;;;5032507;28;43096;-81
2023/10/16 15:18:41;;;;;;;;;;;21.40;47.40;;;;;;5041819;28;43703;-81
2023/10/16 15:21:07;;;;;;;;;;;20.90;47.10;;;;;;5037383;28;42956;-80
2023/10/16 15:23:32;;;;;;;;;;;21.00;47.20;;;;;;5025838;28;43422;-80
2023/10/16 15:25:58;;;;;;;;;;;21.10;47.40;;;;;;5027996;28;43188;-80
2023/10/16 15:28:25;;;;;;;;;;;21.10;47.50;;;;;;5041075;28;43079;-80
2023/10/16 15:30:53;;;;;;;;;;;21.00;47.20;;;;;;5046584;28;43060;-80
2023/10/16 15:33:19;;;;;;;;;;;20.90;47.30;;;;;;5046705;28;43110;-80
2023/10/16 15:35:48;;;;;;;;;;;21.00;47.30;;;;;;5035190;28;44121;-80
2023/10/16 15:38:13;;;;;;;;;;;20.90;47.40;;;;;;5037292;28;43386;-81
2023/10/16 15:40:45;;;;;;;;;;;21.00;48.00;;;;;;5035918;28;42868;-80
2023/10/16 15:43:11;;;;;;;;;;;21.50;48.30;;;;;;5012486;28;43330;-81
2023/10/16 15:45:37;;;;;;;;;;;20.90;48.00;;;;;;5025978;28;42949;-81
2023/10/16 15:48:05;;;;;;;;;;;21.00;48.20;;;;;;5027859;28;43440;-80
2023/10/16 15:50:31;;;;;;;;;;;20.90;47.80;;;;;;5028043;28;43020;-81
2023/10/16 15:52:57;;;;;;;;;;;20.90;47.60;;;;;;5031463;28;43544;-80
2023/10/16 15:55:26;;;;;;;;;;;21.00;47.60;;;;;;5008657;28;43036;-79
2023/10/16 15:57:53;;;;;;;;;;;21.00;47.80;;;;;;5027183;28;43004;-80
2023/10/16 16:00:25;;;;;;;;;;;20.90;48.00;;;;;;5028117;28;42987;-80
2023/10/16 16:02:52;;;;;;;;;;;21.00;47.80;;;;;;5041023;28;43398;-80
2023/10/16 16:05:17;;;;;;;;;;;20.90;47.80;;;;;;5046677;28;42823;-80
2023/10/16 16:07:43;;;;;;;;;;;20.90;47.90;;;;;;5029730;28;42968;-80
2023/10/16 16:10:10;;;;;;;;;;;21.00;48.20;;;;;;5025918;28;43226;-79
2023/10/16 16:12:48;;;;;;;;;;;20.80;48.50;;;;;;5034464;28;43927;-76
2023/10/16 16:15:17;;;;;;;;;;;20.90;48.60;;;;;;5027351;28;42964;-76
2023/10/16 16:17:44;;;;;;;;;;;21.10;48.80;;;;;;5019393;28;44013;-76
2023/10/16 16:20:15;;;;;;;;;;;21.00;48.60;;;;;;5039637;28;43042;-75
2023/10/16 16:22:44;;;;;;;;;;;21.40;48.70;;;;;;5026507;28;43530;-75
2023/10/16 16:25:12;;;;;;;;;;;20.70;46.90;;;;;;5026143;28;42991;-76
2023/10/16 16:27:41;;;;;;;;;;;21.20;48.80;;;;;;5028367;28;43357;-75
2023/10/16 16:30:08;;;;;;;;;;;21.00;48.80;;;;;;5041970;28;43580;-76
2023/10/16 16:32:34;;;;;;;;;;;21.20;48.80;;;;;;5034663;28;42938;-77
2023/10/16 16:35:00;;;;;;;;;;;21.20;48.80;;;;;;5032878;28;45286;-75
2023/10/16 16:37:26;;;;;;;;;;;21.10;48.80;;;;;;5034229;28;43056;-77
2023/10/16 16:39:51;;;;;;;;;;;21.20;48.90;;;;;;5034504;28;42962;-76
2023/10/16 16:42:17;;;;;;;;;;;21.10;49.50;;;;;;5036138;28;43533;-75
2023/10/16 16:44:43;;;;;;;;;;;21.10;49.00;;;;;;5038335;28;43088;-76
2023/10/16 16:47:09;;;;;;;;;;;21.10;49.20;;;;;;5032233;28;43339;-77
2023/10/16 16:49:35;;;;;;;;;;;21.10;49.40;;;;;;5033390;28;42931;-81
2023/10/16 16:52:01;;;;;;;;;;;21.20;49.50;;;;;;5040470;28;42861;-75
2023/10/16 16:54:28;;;;;;;;;;;21.20;49.70;;;;;;5035621;28;43027;-76
2023/10/16 16:56:54;;;;;;;;;;;21.20;49.70;;;;;;5019358;28;43414;-83
2023/10/16 16:59:20;;;;;;;;;;;21.20;50.30;;;;;;5037074;28;42946;-77
2023/10/16 17:01:48;;;;;;;;;;;21.20;49.90;;;;;;5031597;28;43671;-81
2023/10/16 17:04:15;;;;;;;;;;;20.80;48.20;;;;;;5035039;28;43307;-82
2023/10/16 17:06:42;;;;;;;;;;;21.10;50.30;;;;;;5017268;28;44515;-78
2023/10/16 17:09:11;;;;;;;;;;;21.20;50.40;;;;;;5034178;28;43201;-77
2023/10/16 17:11:37;;;;;;;;;;;21.10;50.40;;;;;;5034628;28;43571;-78
2023/10/16 17:14:04;;;;;;;;;;;21.10;50.50;;;;;;5035475;28;42897;-77
2023/10/16 17:16:30;;;;;;;;;;;21.10;50.30;;;;;;5033674;28;44557;-77
2023/10/16 17:18:55;;;;;;;;;;;21.20;50.60;;;;;;5028844;28;43092;-78
2023/10/16 17:21:21;;;;;;;;;;;21.10;50.30;;;;;;5027524;28;43752;-78
2023/10/16 17:23:47;;;;;;;;;;;21.20;50.80;;;;;;5043586;28;42979;-77
2023/10/16 17:26:12;;;;;;;;;;;21.10;50.30;;;;;;5044759;28;43538;-77
2023/10/16 17:28:38;;;;;;;;;;;21.20;51.00;;;;;;5044743;28;42862;-77
2023/10/16 17:31:04;;;;;;;;;;;21.20;51.00;;;;;;5041480;28;43025;-78
2023/10/16 17:33:32;;;;;;;;;;;21.10;50.90;;;;;;5037122;28;42809;-76
2023/10/16 17:36:02;;;;;;;;;;;21.10;51.10;;;;;;5033898;28;42972;-76
2023/10/16 17:38:28;;;;;;;;;;;21.10;49.20;;;;;;5034677;28;42979;-76
2023/10/16 17:40:53;;;;;;;;;;;21.10;50.60;;;;;;5034533;28;43091;-78
2023/10/16 17:43:19;;;;;;;;;;;21.00;50.60;;;;;;5034237;28;42949;-75
2023/10/16 17:45:46;;;;;;;;;;;21.30;51.20;;;;;;5034614;28;42921;-75
2023/10/16 17:48:12;;;;;;;;;;;21.50;50.90;;;;;;5036735;28;43015;-75
2023/10/16 17:50:38;;;;;;;;;;;21.10;51.00;;;;;;5035048;28;43503;-74
2023/10/16 17:53:11;;;;;;;;;;;21.10;51.10;;;;;;5030671;28;42940;-75
2023/10/16 17:55:36;;;;;;;;;;;21.30;51.40;;;;;;5024897;28;43234;-75
2023/10/16 17:58:03;;;;;;;;;;;21.20;51.60;;;;;;5027540;28;42885;-75
2023/10/16 18:00:29;;;;;;;;;;;21.40;51.70;;;;;;5043934;28;43032;-75
2023/10/16 18:02:57;;;;;;;;;;;21.40;51.40;;;;;;5040070;28;43220;-86
2023/10/16 18:05:25;;;;;;;;;;;21.20;51.30;;;;;;5019890;28;45256;-78
2023/10/16 18:08:09;;;;;;;;;;;21.30;51.50;;;;;;5035110;28;43093;-75
2023/10/16 18:10:41;;;;;;;;;;;21.40;51.60;;;;;;5011591;28;44219;-77
2023/10/16 18:13:07;;;;;;;;;;;20.90;49.90;;;;;;5036273;28;43070;-76
2023/10/16 18:15:33;;;;;;;;;;;21.40;51.80;;;;;;5036759;28;43128;-76
2023/10/16 18:18:00;;;;;;;;;;;21.90;52.10;;;;;;5036437;28;43110;-76
2023/10/16 18:20:31;;;;;;;;;;;21.30;51.90;;;;;;5042519;28;43529;-76
2023/10/16 18:23:02;;;;;;;;;;;21.30;51.90;;;;;;5037611;28;42930;-83
2023/10/16 18:25:31;;;;;;;;;;;21.40;52.10;;;;;;5019401;28;44449;-75
2023/10/16 18:27:57;;;;;;;;;;;21.00;51.80;;;;;;5043774;28;42940;-76
2023/10/16 18:30:23;;;;;;;;;;;21.30;52.10;;;;;;5038043;28;44190;-75
2023/10/16 18:32:48;;;;;;;;;;;21.30;52.10;;;;;;5042202;28;42869;-76
2023/10/16 18:35:17;;;;;;;;;;;21.30;52.20;;;;;;5027201;28;43642;-79
2023/10/16 18:37:46;;;;;;;;;;;21.30;52.20;;;;;;5027537;28;43036;-77
2023/10/16 18:40:12;;;;;;;;;;;21.30;50.90;;;;;;5027741;28;43201;-76
2023/10/16 18:42:41;;;;;;;;;;;21.40;52.50;;;;;;5030944;28;43206;-80
2023/10/16 18:45:07;;;;;;;;;;;21.30;50.40;;;;;;5009062;28;45382;-76
2023/10/16 18:47:33;;;;;;;;;;;21.40;52.60;;;;;;5033982;28;43038;-77
2023/10/16 18:49:59;;;;;;;;;;;21.50;52.50;;;;;;5034879;28;42975;-75
2023/10/16 18:52:25;;;;;;;;;;;21.30;53.00;;;;;;5037065;28;43074;-76
2023/10/16 18:54:50;;;;;;;;;;;21.50;53.10;;;;;;5031722;28;43497;-76
2023/10/16 18:57:18;;;;;;;;;;;21.30;53.00;;;;;;5039063;28;43116;-75
2023/10/16 18:59:44;;;;;;;;;;;21.40;52.60;;;;;;5038561;28;43408;-85
2023/10/16 19:02:10;;;;;;;;;;;21.40;52.70;;;;;;5034800;28;42936;-80
2023/10/16 19:04:36;;;;;;;;;;;21.10;52.60;;;;;;5018630;28;45654;-79